sensor_id;sensor_type;location;lat;lon;timestamp;P1;durP1;ratioP1;P2;durP2;ratioP2
37517;SDS011;23366;52.498;13.446;2024-03-08T00:01:35;15.75;;;9.23;;
37517;SDS011;23366;52.498;13.446;2024-03-08T00:04:01;24.80;;;10.77;;
37517;SDS011;23366;52.498;13.446;2024-03-08T00:06:27;17.08;;;8.52;;
37517;SDS011;23366;52.498;13.446;2024-03-08T00:08:53;22.20;;;9.35;;
37517;SDS011;23366;52.498;13.446;2024-03-08T00:11:19;24.33;;;10.18;;
37517;SDS011;23366;52.498;13.446;2024-03-08T00:13:46;19.73;;;9.13;;
37517;SDS011;23366;52.498;13.446;2024-03-08T00:16:12;18.20;;;9.98;;
37517;SDS011;23366;52.498;13.446;2024-03-08T00:18:38;21.17;;;8.63;;
37517;SDS011;23366;52.498;13.446;2024-03-08T00:21:04;20.40;;;10.95;;
37517;SDS011;23366;52.498;13.446;2024-03-08T00:23:30;21.65;;;9.38;;
37517;SDS011;23366;52.498;13.446;2024-03-08T00:25:56;21.08;;;8.30;;
37517;SDS011;23366;52.498;13.446;2024-03-08T00:28:22;19.10;;;8.88;;
37517;SDS011;23366;52.498;13.446;2024-03-08T00:30:57;20.17;;;8.80;;
37517;SDS011;23366;52.498;13.446;2024-03-08T00:33:23;21.05;;;11.00;;
37517;SDS011;23366;52.498;13.446;2024-03-08T00:35:49;19.67;;;9.23;;
37517;SDS011;23366;52.498;13.446;2024-03-08T00:38:15;14.85;;;8.20;;
37517;SDS011;23366;52.498;13.446;2024-03-08T00:40:41;21.05;;;10.07;;
37517;SDS011;23366;52.498;13.446;2024-03-08T00:43:07;20.75;;;9.07;;
37517;SDS011;23366;52.498;13.446;2024-03-08T00:45:33;24.85;;;9.85;;
37517;SDS011;23366;52.498;13.446;2024-03-08T00:47:59;20.90;;;9.65;;
37517;SDS011;23366;52.498;13.446;2024-03-08T00:50:25;24.23;;;8.80;;
37517;SDS011;23366;52.498;13.446;2024-03-08T00:52:51;22.13;;;9.55;;
37517;SDS011;23366;52.498;13.446;2024-03-08T00:55:17;28.90;;;10.27;;
37517;SDS011;23366;52.498;13.446;2024-03-08T00:57:43;19.27;;;9.02;;
37517;SDS011;23366;52.498;13.446;2024-03-08T01:00:09;25.65;;;9.95;;
37517;SDS011;23366;52.498;13.446;2024-03-08T01:02:37;23.88;;;12.57;;
37517;SDS011;23366;52.498;13.446;2024-03-08T01:05:03;21.02;;;8.98;;
37517;SDS011;23366;52.498;13.446;2024-03-08T01:07:32;19.50;;;10.05;;
37517;SDS011;23366;52.498;13.446;2024-03-08T01:09:58;21.50;;;8.57;;
37517;SDS011;23366;52.498;13.446;2024-03-08T01:12:25;22.00;;;10.18;;
37517;SDS011;23366;52.498;13.446;2024-03-08T01:14:51;21.55;;;10.48;;
37517;SDS011;23366;52.498;13.446;2024-03-08T01:17:17;25.08;;;11.75;;
37517;SDS011;23366;52.498;13.446;2024-03-08T01:19:43;19.02;;;9.82;;
37517;SDS011;23366;52.498;13.446;2024-03-08T01:22:10;21.60;;;10.48;;
37517;SDS011;23366;52.498;13.446;2024-03-08T01:24:36;22.58;;;8.43;;
37517;SDS011;23366;52.498;13.446;2024-03-08T01:27:02;26.35;;;11.00;;
37517;SDS011;23366;52.498;13.446;2024-03-08T01:29:28;26.33;;;11.80;;
37517;SDS011;23366;52.498;13.446;2024-03-08T01:31:57;25.55;;;10.13;;
37517;SDS011;23366;52.498;13.446;2024-03-08T01:34:26;21.00;;;8.48;;
37517;SDS011;23366;52.498;13.446;2024-03-08T01:36:53;29.67;;;10.50;;
37517;SDS011;23366;52.498;13.446;2024-03-08T01:39:21;24.13;;;10.75;;
37517;SDS011;23366;52.498;13.446;2024-03-08T01:41:47;22.65;;;8.68;;
37517;SDS011;23366;52.498;13.446;2024-03-08T01:44:13;22.33;;;10.10;;
37517;SDS011;23366;52.498;13.446;2024-03-08T01:46:43;23.08;;;9.30;;
37517;SDS011;23366;52.498;13.446;2024-03-08T01:49:10;24.15;;;10.77;;
37517;SDS011;23366;52.498;13.446;2024-03-08T01:51:36;20.55;;;9.82;;
37517;SDS011;23366;52.498;13.446;2024-03-08T01:54:03;20.60;;;10.90;;
37517;SDS011;23366;52.498;13.446;2024-03-08T01:56:29;18.85;;;9.77;;
37517;SDS011;23366;52.498;13.446;2024-03-08T01:58:59;21.67;;;9.32;;
37517;SDS011;23366;52.498;13.446;2024-03-08T02:01:25;15.52;;;9.45;;
37517;SDS011;23366;52.498;13.446;2024-03-08T02:03:52;19.50;;;10.77;;
37517;SDS011;23366;52.498;13.446;2024-03-08T02:06:18;25.52;;;10.00;;
37517;SDS011;23366;52.498;13.446;2024-03-08T02:08:44;30.67;;;11.27;;
37517;SDS011;23366;52.498;13.446;2024-03-08T02:11:10;24.83;;;10.27;;
37517;SDS011;23366;52.498;13.446;2024-03-08T02:13:36;17.85;;;9.02;;
37517;SDS011;23366;52.498;13.446;2024-03-08T02:16:02;19.55;;;10.40;;
37517;SDS011;23366;52.498;13.446;2024-03-08T02:18:29;21.85;;;10.25;;
37517;SDS011;23366;52.498;13.446;2024-03-08T02:20:56;26.70;;;11.18;;
37517;SDS011;23366;52.498;13.446;2024-03-08T02:23:22;21.05;;;9.20;;
37517;SDS011;23366;52.498;13.446;2024-03-08T02:25:50;21.48;;;9.20;;
37517;SDS011;23366;52.498;13.446;2024-03-08T02:28:16;20.38;;;10.27;;
37517;SDS011;23366;52.498;13.446;2024-03-08T02:30:44;22.83;;;9.50;;
37517;SDS011;23366;52.498;13.446;2024-03-08T02:33:13;23.85;;;9.05;;
37517;SDS011;23366;52.498;13.446;2024-03-08T02:35:41;23.40;;;11.65;;
37517;SDS011;23366;52.498;13.446;2024-03-08T02:38:07;19.30;;;10.38;;
37517;SDS011;23366;52.498;13.446;2024-03-08T02:40:33;25.40;;;9.57;;
37517;SDS011;23366;52.498;13.446;2024-03-08T02:42:59;27.77;;;11.07;;
37517;SDS011;23366;52.498;13.446;2024-03-08T02:45:25;19.65;;;9.30;;
37517;SDS011;23366;52.498;13.446;2024-03-08T02:47:51;20.45;;;9.30;;
37517;SDS011;23366;52.498;13.446;2024-03-08T02:50:17;27.10;;;10.93;;
37517;SDS011;23366;52.498;13.446;2024-03-08T02:52:44;27.35;;;10.30;;
37517;SDS011;23366;52.498;13.446;2024-03-08T02:55:11;24.00;;;11.85;;
37517;SDS011;23366;52.498;13.446;2024-03-08T02:57:41;24.27;;;10.88;;
37517;SDS011;23366;52.498;13.446;2024-03-08T03:00:07;23.75;;;8.80;;
37517;SDS011;23366;52.498;13.446;2024-03-08T03:02:36;22.38;;;10.60;;
37517;SDS011;23366;52.498;13.446;2024-03-08T03:05:02;21.13;;;11.00;;
37517;SDS011;23366;52.498;13.446;2024-03-08T03:07:31;17.98;;;10.15;;
37517;SDS011;23366;52.498;13.446;2024-03-08T03:09:58;21.02;;;10.45;;
37517;SDS011;23366;52.498;13.446;2024-03-08T03:12:25;21.38;;;10.50;;
37517;SDS011;23366;52.498;13.446;2024-03-08T03:14:51;24.63;;;10.27;;
37517;SDS011;23366;52.498;13.446;2024-03-08T03:17:17;26.45;;;11.85;;
37517;SDS011;23366;52.498;13.446;2024-03-08T03:19:43;21.50;;;10.32;;
37517;SDS011;23366;52.498;13.446;2024-03-08T03:22:09;20.60;;;10.43;;
37517;SDS011;23366;52.498;13.446;2024-03-08T03:24:35;22.58;;;10.40;;
37517;SDS011;23366;52.498;13.446;2024-03-08T03:27:03;21.98;;;11.20;;
37517;SDS011;23366;52.498;13.446;2024-03-08T03:29:35;23.67;;;11.38;;
37517;SDS011;23366;52.498;13.446;2024-03-08T03:32:01;29.75;;;12.05;;
37517;SDS011;23366;52.498;13.446;2024-03-08T03:34:29;22.52;;;10.05;;
37517;SDS011;23366;52.498;13.446;2024-03-08T03:36:55;25.40;;;12.13;;
37517;SDS011;23366;52.498;13.446;2024-03-08T03:39:21;22.98;;;8.98;;
37517;SDS011;23366;52.498;13.446;2024-03-08T03:41:47;21.77;;;10.10;;
37517;SDS011;23366;52.498;13.446;2024-03-08T03:44:17;23.48;;;10.77;;
37517;SDS011;23366;52.498;13.446;2024-03-08T03:46:43;26.80;;;10.50;;
37517;SDS011;23366;52.498;13.446;2024-03-08T03:49:12;25.65;;;11.18;;
37517;SDS011;23366;52.498;13.446;2024-03-08T03:51:38;23.60;;;10.40;;
37517;SDS011;23366;52.498;13.446;2024-03-08T03:54:04;26.25;;;10.95;;
37517;SDS011;23366;52.498;13.446;2024-03-08T03:56:30;20.52;;;11.32;;
37517;SDS011;23366;52.498;13.446;2024-03-08T03:58:56;25.13;;;11.48;;
37517;SDS011;23366;52.498;13.446;2024-03-08T04:01:22;27.35;;;11.70;;
37517;SDS011;23366;52.498;13.446;2024-03-08T04:03:49;23.65;;;11.43;;
37517;SDS011;23366;52.498;13.446;2024-03-08T04:06:15;24.10;;;10.18;;
37517;SDS011;23366;52.498;13.446;2024-03-08T04:08:41;28.83;;;12.68;;
37517;SDS011;23366;52.498;13.446;2024-03-08T04:11:07;27.35;;;11.68;;
37517;SDS011;23366;52.498;13.446;2024-03-08T04:13:33;23.25;;;12.30;;
37517;SDS011;23366;52.498;13.446;2024-03-08T04:15:59;25.45;;;11.25;;
37517;SDS011;23366;52.498;13.446;2024-03-08T04:18:25;26.80;;;11.00;;
37517;SDS011;23366;52.498;13.446;2024-03-08T04:20:51;24.42;;;10.48;;
37517;SDS011;23366;52.498;13.446;2024-03-08T04:23:17;28.13;;;13.05;;
37517;SDS011;23366;52.498;13.446;2024-03-08T04:25:44;23.15;;;10.35;;
37517;SDS011;23366;52.498;13.446;2024-03-08T04:28:10;30.55;;;12.20;;
37517;SDS011;23366;52.498;13.446;2024-03-08T04:30:39;29.30;;;13.15;;
37517;SDS011;23366;52.498;13.446;2024-03-08T04:33:05;28.40;;;12.68;;
37517;SDS011;23366;52.498;13.446;2024-03-08T04:35:32;31.65;;;11.30;;
37517;SDS011;23366;52.498;13.446;2024-03-08T04:37:58;22.60;;;12.60;;
37517;SDS011;23366;52.498;13.446;2024-03-08T04:40:24;26.38;;;13.00;;
37517;SDS011;23366;52.498;13.446;2024-03-08T04:42:50;22.98;;;12.68;;
37517;SDS011;23366;52.498;13.446;2024-03-08T04:45:17;32.92;;;12.13;;
37517;SDS011;23366;52.498;13.446;2024-03-08T04:47:43;26.40;;;11.20;;
37517;SDS011;23366;52.498;13.446;2024-03-08T04:50:09;24.88;;;11.18;;
37517;SDS011;23366;52.498;13.446;2024-03-08T04:52:36;23.92;;;10.80;;
37517;SDS011;23366;52.498;13.446;2024-03-08T04:55:02;26.00;;;11.65;;
37517;SDS011;23366;52.498;13.446;2024-03-08T04:57:30;28.73;;;11.65;;
37517;SDS011;23366;52.498;13.446;2024-03-08T04:59:57;27.25;;;12.73;;
37517;SDS011;23366;52.498;13.446;2024-03-08T05:02:24;27.98;;;12.02;;
37517;SDS011;23366;52.498;13.446;2024-03-08T05:04:50;28.60;;;12.30;;
37517;SDS011;23366;52.498;13.446;2024-03-08T05:07:16;32.85;;;14.23;;
37517;SDS011;23366;52.498;13.446;2024-03-08T05:09:42;23.30;;;12.32;;
37517;SDS011;23366;52.498;13.446;2024-03-08T05:12:08;27.92;;;12.40;;
37517;SDS011;23366;52.498;13.446;2024-03-08T05:14:34;30.67;;;12.00;;
37517;SDS011;23366;52.498;13.446;2024-03-08T05:17:00;28.95;;;12.20;;
37517;SDS011;23366;52.498;13.446;2024-03-08T05:19:26;30.40;;;14.00;;
37517;SDS011;23366;52.498;13.446;2024-03-08T05:21:53;25.38;;;11.05;;
37517;SDS011;23366;52.498;13.446;2024-03-08T05:24:19;29.60;;;13.02;;
37517;SDS011;23366;52.498;13.446;2024-03-08T05:26:46;32.33;;;14.38;;
37517;SDS011;23366;52.498;13.446;2024-03-08T05:29:12;24.48;;;12.00;;
37517;SDS011;23366;52.498;13.446;2024-03-08T05:31:49;30.75;;;12.57;;
37517;SDS011;23366;52.498;13.446;2024-03-08T05:34:15;27.55;;;10.85;;
37517;SDS011;23366;52.498;13.446;2024-03-08T05:36:42;31.92;;;12.85;;
37517;SDS011;23366;52.498;13.446;2024-03-08T05:39:15;30.73;;;13.13;;
37517;SDS011;23366;52.498;13.446;2024-03-08T05:41:41;32.58;;;14.18;;
37517;SDS011;23366;52.498;13.446;2024-03-08T05:44:07;32.67;;;13.38;;
37517;SDS011;23366;52.498;13.446;2024-03-08T05:46:34;40.65;;;16.70;;
37517;SDS011;23366;52.498;13.446;2024-03-08T05:49:01;27.02;;;12.95;;
37517;SDS011;23366;52.498;13.446;2024-03-08T05:51:30;33.30;;;14.35;;
37517;SDS011;23366;52.498;13.446;2024-03-08T05:53:56;28.00;;;11.68;;
37517;SDS011;23366;52.498;13.446;2024-03-08T05:56:23;19.67;;;10.52;;
37517;SDS011;23366;52.498;13.446;2024-03-08T05:58:49;34.72;;;13.35;;
37517;SDS011;23366;52.498;13.446;2024-03-08T06:01:15;27.52;;;13.23;;
37517;SDS011;23366;52.498;13.446;2024-03-08T06:03:41;30.90;;;14.10;;
37517;SDS011;23366;52.498;13.446;2024-03-08T06:06:14;28.98;;;14.85;;
37517;SDS011;23366;52.498;13.446;2024-03-08T06:08:40;26.80;;;13.75;;
37517;SDS011;23366;52.498;13.446;2024-03-08T06:11:08;33.10;;;12.57;;
37517;SDS011;23366;52.498;13.446;2024-03-08T06:13:35;32.03;;;13.48;;
37517;SDS011;23366;52.498;13.446;2024-03-08T06:16:01;35.33;;;14.43;;
37517;SDS011;23366;52.498;13.446;2024-03-08T06:18:33;25.85;;;13.32;;
37517;SDS011;23366;52.498;13.446;2024-03-08T06:20:59;29.50;;;13.40;;
37517;SDS011;23366;52.498;13.446;2024-03-08T06:23:25;30.27;;;13.82;;
37517;SDS011;23366;52.498;13.446;2024-03-08T06:25:52;25.98;;;13.02;;
37517;SDS011;23366;52.498;13.446;2024-03-08T06:28:19;38.22;;;14.68;;
37517;SDS011;23366;52.498;13.446;2024-03-08T06:30:45;29.88;;;13.05;;
37517;SDS011;23366;52.498;13.446;2024-03-08T06:33:11;21.60;;;11.18;;
37517;SDS011;23366;52.498;13.446;2024-03-08T06:35:37;26.75;;;12.90;;
37517;SDS011;23366;52.498;13.446;2024-03-08T06:38:03;30.40;;;13.20;;
37517;SDS011;23366;52.498;13.446;2024-03-08T06:40:29;26.13;;;12.27;;
37517;SDS011;23366;52.498;13.446;2024-03-08T06:42:55;28.40;;;12.23;;
37517;SDS011;23366;52.498;13.446;2024-03-08T06:45:21;27.40;;;13.15;;
37517;SDS011;23366;52.498;13.446;2024-03-08T06:47:48;36.75;;;15.00;;
37517;SDS011;23366;52.498;13.446;2024-03-08T06:50:15;25.13;;;13.18;;
37517;SDS011;23366;52.498;13.446;2024-03-08T06:52:41;32.95;;;13.90;;
37517;SDS011;23366;52.498;13.446;2024-03-08T06:55:07;22.20;;;11.48;;
37517;SDS011;23366;52.498;13.446;2024-03-08T06:57:38;21.23;;;12.63;;
37517;SDS011;23366;52.498;13.446;2024-03-08T07:00:05;21.35;;;11.90;;
37517;SDS011;23366;52.498;13.446;2024-03-08T07:02:34;25.20;;;12.88;;
37517;SDS011;23366;52.498;13.446;2024-03-08T07:05:00;23.70;;;12.25;;
37517;SDS011;23366;52.498;13.446;2024-03-08T07:07:26;24.17;;;10.57;;
37517;SDS011;23366;52.498;13.446;2024-03-08T07:09:52;25.65;;;11.10;;
37517;SDS011;23366;52.498;13.446;2024-03-08T07:12:20;18.88;;;9.48;;
37517;SDS011;23366;52.498;13.446;2024-03-08T07:14:46;29.45;;;11.05;;
37517;SDS011;23366;52.498;13.446;2024-03-08T07:17:12;23.95;;;11.85;;
37517;SDS011;23366;52.498;13.446;2024-03-08T07:19:38;29.45;;;9.90;;
37517;SDS011;23366;52.498;13.446;2024-03-08T07:22:05;23.58;;;11.60;;
37517;SDS011;23366;52.498;13.446;2024-03-08T07:24:34;18.67;;;10.27;;
37517;SDS011;23366;52.498;13.446;2024-03-08T07:29:40;20.10;;;9.23;;
37517;SDS011;23366;52.498;13.446;2024-03-08T07:32:07;22.13;;;10.40;;
37517;SDS011;23366;52.498;13.446;2024-03-08T07:34:50;20.10;;;9.15;;
37517;SDS011;23366;52.498;13.446;2024-03-08T07:37:17;20.40;;;10.32;;
37517;SDS011;23366;52.498;13.446;2024-03-08T07:39:44;18.98;;;10.68;;
37517;SDS011;23366;52.498;13.446;2024-03-08T07:42:10;19.42;;;11.07;;
37517;SDS011;23366;52.498;13.446;2024-03-08T07:44:36;20.08;;;10.38;;
37517;SDS011;23366;52.498;13.446;2024-03-08T07:47:02;20.85;;;11.23;;
37517;SDS011;23366;52.498;13.446;2024-03-08T07:49:29;25.17;;;12.88;;
37517;SDS011;23366;52.498;13.446;2024-03-08T07:51:55;19.83;;;11.15;;
37517;SDS011;23366;52.498;13.446;2024-03-08T07:54:21;22.35;;;10.88;;
37517;SDS011;23366;52.498;13.446;2024-03-08T07:56:47;21.02;;;11.48;;
37517;SDS011;23366;52.498;13.446;2024-03-08T07:59:13;22.70;;;11.15;;
37517;SDS011;23366;52.498;13.446;2024-03-08T08:01:39;22.10;;;11.50;;
37517;SDS011;23366;52.498;13.446;2024-03-08T08:04:05;24.05;;;11.48;;
37517;SDS011;23366;52.498;13.446;2024-03-08T08:06:32;25.10;;;12.23;;
37517;SDS011;23366;52.498;13.446;2024-03-08T08:08:58;19.65;;;10.13;;
37517;SDS011;23366;52.498;13.446;2024-03-08T08:11:26;18.00;;;10.55;;
37517;SDS011;23366;52.498;13.446;2024-03-08T08:13:53;22.77;;;10.98;;
37517;SDS011;23366;52.498;13.446;2024-03-08T08:16:19;22.25;;;10.55;;
37517;SDS011;23366;52.498;13.446;2024-03-08T08:18:45;19.15;;;11.43;;
37517;SDS011;23366;52.498;13.446;2024-03-08T08:21:12;22.73;;;11.65;;
37517;SDS011;23366;52.498;13.446;2024-03-08T08:23:38;25.27;;;12.27;;
37517;SDS011;23366;52.498;13.446;2024-03-08T08:26:04;20.48;;;9.70;;
37517;SDS011;23366;52.498;13.446;2024-03-08T08:28:32;19.80;;;10.90;;
37517;SDS011;23366;52.498;13.446;2024-03-08T08:30:58;19.23;;;10.25;;
37517;SDS011;23366;52.498;13.446;2024-03-08T08:33:25;22.48;;;10.18;;
37517;SDS011;23366;52.498;13.446;2024-03-08T08:35:51;19.70;;;9.60;;
37517;SDS011;23366;52.498;13.446;2024-03-08T08:38:19;21.42;;;10.57;;
37517;SDS011;23366;52.498;13.446;2024-03-08T08:40:45;16.63;;;9.13;;
37517;SDS011;23366;52.498;13.446;2024-03-08T08:43:12;18.05;;;9.90;;
37517;SDS011;23366;52.498;13.446;2024-03-08T08:45:39;18.08;;;9.93;;
37517;SDS011;23366;52.498;13.446;2024-03-08T08:48:05;21.73;;;11.85;;
37517;SDS011;23366;52.498;13.446;2024-03-08T08:50:31;20.38;;;9.57;;
37517;SDS011;23366;52.498;13.446;2024-03-08T08:52:57;17.33;;;9.40;;
37517;SDS011;23366;52.498;13.446;2024-03-08T08:55:23;25.30;;;10.80;;
37517;SDS011;23366;52.498;13.446;2024-03-08T08:57:51;18.25;;;9.95;;
37517;SDS011;23366;52.498;13.446;2024-03-08T09:00:21;18.95;;;9.13;;
37517;SDS011;23366;52.498;13.446;2024-03-08T09:02:52;17.35;;;9.20;;
37517;SDS011;23366;52.498;13.446;2024-03-08T09:05:20;24.65;;;9.82;;
37517;SDS011;23366;52.498;13.446;2024-03-08T09:07:46;17.88;;;9.80;;
37517;SDS011;23366;52.498;13.446;2024-03-08T09:10:12;17.73;;;9.98;;
37517;SDS011;23366;52.498;13.446;2024-03-08T09:12:39;23.65;;;11.93;;
37517;SDS011;23366;52.498;13.446;2024-03-08T09:15:05;18.40;;;11.07;;
37517;SDS011;23366;52.498;13.446;2024-03-08T09:17:36;28.85;;;12.52;;
37517;SDS011;23366;52.498;13.446;2024-03-08T09:20:05;26.23;;;10.30;;
37517;SDS011;23366;52.498;13.446;2024-03-08T09:22:31;28.33;;;11.43;;
37517;SDS011;23366;52.498;13.446;2024-03-08T09:24:57;27.45;;;11.77;;
37517;SDS011;23366;52.498;13.446;2024-03-08T09:27:23;22.83;;;9.95;;
37517;SDS011;23366;52.498;13.446;2024-03-08T09:29:49;25.58;;;11.70;;
37517;SDS011;23366;52.498;13.446;2024-03-08T09:32:15;26.58;;;10.05;;
37517;SDS011;23366;52.498;13.446;2024-03-08T09:34:41;22.50;;;9.05;;
37517;SDS011;23366;52.498;13.446;2024-03-08T09:37:07;22.27;;;10.75;;
37517;SDS011;23366;52.498;13.446;2024-03-08T09:39:34;23.35;;;10.50;;
37517;SDS011;23366;52.498;13.446;2024-03-08T09:42:00;24.23;;;10.68;;
37517;SDS011;23366;52.498;13.446;2024-03-08T09:44:26;23.00;;;10.15;;
37517;SDS011;23366;52.498;13.446;2024-03-08T09:46:54;21.70;;;9.65;;
37517;SDS011;23366;52.498;13.446;2024-03-08T09:49:20;25.27;;;12.43;;
37517;SDS011;23366;52.498;13.446;2024-03-08T09:51:46;23.92;;;10.32;;
37517;SDS011;23366;52.498;13.446;2024-03-08T09:54:12;19.13;;;9.55;;
37517;SDS011;23366;52.498;13.446;2024-03-08T09:56:41;31.13;;;9.43;;
37517;SDS011;23366;52.498;13.446;2024-03-08T09:59:11;23.98;;;11.43;;
37517;SDS011;23366;52.498;13.446;2024-03-08T10:01:53;14.50;;;8.35;;
37517;SDS011;23366;52.498;13.446;2024-03-08T10:04:21;22.38;;;10.30;;
37517;SDS011;23366;52.498;13.446;2024-03-08T10:06:47;17.05;;;10.05;;
37517;SDS011;23366;52.498;13.446;2024-03-08T10:09:13;20.52;;;9.10;;
37517;SDS011;23366;52.498;13.446;2024-03-08T10:11:41;18.05;;;8.75;;
37517;SDS011;23366;52.498;13.446;2024-03-08T10:14:08;22.08;;;9.60;;
37517;SDS011;23366;52.498;13.446;2024-03-08T10:16:34;18.85;;;9.35;;
37517;SDS011;23366;52.498;13.446;2024-03-08T10:19:00;20.55;;;10.00;;
37517;SDS011;23366;52.498;13.446;2024-03-08T10:21:26;20.15;;;9.45;;
37517;SDS011;23366;52.498;13.446;2024-03-08T10:23:52;22.80;;;11.70;;
37517;SDS011;23366;52.498;13.446;2024-03-08T10:26:18;18.35;;;9.00;;
37517;SDS011;23366;52.498;13.446;2024-03-08T10:28:50;25.55;;;11.60;;
37517;SDS011;23366;52.498;13.446;2024-03-08T10:31:17;23.75;;;10.82;;
37517;SDS011;23366;52.498;13.446;2024-03-08T10:33:44;23.80;;;10.18;;
37517;SDS011;23366;52.498;13.446;2024-03-08T10:36:10;18.52;;;9.52;;
37517;SDS011;23366;52.498;13.446;2024-03-08T10:38:38;18.42;;;8.52;;
37517;SDS011;23366;52.498;13.446;2024-03-08T10:41:05;27.25;;;9.65;;
37517;SDS011;23366;52.498;13.446;2024-03-08T10:46:30;16.00;;;8.18;;
37517;SDS011;23366;52.498;13.446;2024-03-08T10:48:59;16.77;;;8.57;;
37517;SDS011;23366;52.498;13.446;2024-03-08T10:51:28;16.02;;;7.88;;
37517;SDS011;23366;52.498;13.446;2024-03-08T10:53:55;14.45;;;7.20;;
37517;SDS011;23366;52.498;13.446;2024-03-08T10:56:22;13.30;;;6.38;;
37517;SDS011;23366;52.498;13.446;2024-03-08T10:58:52;17.75;;;7.25;;
37517;SDS011;23366;52.498;13.446;2024-03-08T11:01:18;12.80;;;7.28;;
37517;SDS011;23366;52.498;13.446;2024-03-08T11:03:44;19.55;;;9.23;;
37517;SDS011;23366;52.498;13.446;2024-03-08T11:06:19;20.25;;;8.50;;
37517;SDS011;23366;52.498;13.446;2024-03-08T11:08:48;18.95;;;8.38;;
37517;SDS011;23366;52.498;13.446;2024-03-08T11:11:26;17.55;;;8.77;;
37517;SDS011;23366;52.498;13.446;2024-03-08T11:13:55;18.75;;;8.20;;
37517;SDS011;23366;52.498;13.446;2024-03-08T11:19:00;16.88;;;7.72;;
37517;SDS011;23366;52.498;13.446;2024-03-08T11:21:29;17.80;;;8.52;;
37517;SDS011;23366;52.498;13.446;2024-03-08T11:24:01;17.77;;;8.48;;
37517;SDS011;23366;52.498;13.446;2024-03-08T11:26:28;15.45;;;8.20;;
37517;SDS011;23366;52.498;13.446;2024-03-08T11:31:45;17.35;;;7.70;;
37517;SDS011;23366;52.498;13.446;2024-03-08T11:34:15;14.98;;;7.70;;
37517;SDS011;23366;52.498;13.446;2024-03-08T11:36:41;17.58;;;7.22;;
37517;SDS011;23366;52.498;13.446;2024-03-08T11:39:07;13.50;;;6.55;;
37517;SDS011;23366;52.498;13.446;2024-03-08T11:41:39;16.45;;;7.00;;
37517;SDS011;23366;52.498;13.446;2024-03-08T11:44:06;20.25;;;7.90;;
37517;SDS011;23366;52.498;13.446;2024-03-08T11:46:34;17.85;;;7.88;;
37517;SDS011;23366;52.498;13.446;2024-03-08T11:49:00;19.58;;;8.65;;
37517;SDS011;23366;52.498;13.446;2024-03-08T11:51:28;17.88;;;8.80;;
37517;SDS011;23366;52.498;13.446;2024-03-08T11:53:55;20.63;;;9.27;;
37517;SDS011;23366;52.498;13.446;2024-03-08T11:56:21;15.48;;;6.82;;
37517;SDS011;23366;52.498;13.446;2024-03-08T11:58:54;18.02;;;7.22;;
37517;SDS011;23366;52.498;13.446;2024-03-08T12:01:22;19.08;;;7.20;;
37517;SDS011;23366;52.498;13.446;2024-03-08T12:03:55;18.67;;;8.80;;
37517;SDS011;23366;52.498;13.446;2024-03-08T12:06:23;18.30;;;8.43;;
37517;SDS011;23366;52.498;13.446;2024-03-08T12:08:49;15.20;;;7.45;;
37517;SDS011;23366;52.498;13.446;2024-03-08T12:11:19;14.27;;;8.48;;
37517;SDS011;23366;52.498;13.446;2024-03-08T12:13:48;15.77;;;7.60;;
37517;SDS011;23366;52.498;13.446;2024-03-08T12:16:16;13.63;;;9.00;;
37517;SDS011;23366;52.498;13.446;2024-03-08T12:18:46;15.65;;;8.27;;
37517;SDS011;23366;52.498;13.446;2024-03-08T12:21:13;19.48;;;9.05;;
37517;SDS011;23366;52.498;13.446;2024-03-08T12:23:42;15.07;;;7.93;;
37517;SDS011;23366;52.498;13.446;2024-03-08T12:26:18;20.08;;;8.45;;
37517;SDS011;23366;52.498;13.446;2024-03-08T12:28:49;12.23;;;6.85;;
37517;SDS011;23366;52.498;13.446;2024-03-08T12:31:18;16.48;;;8.27;;
37517;SDS011;23366;52.498;13.446;2024-03-08T12:36:14;18.13;;;9.23;;
37517;SDS011;23366;52.498;13.446;2024-03-08T12:38:43;17.00;;;7.93;;
37517;SDS011;23366;52.498;13.446;2024-03-08T12:41:12;17.02;;;8.85;;
37517;SDS011;23366;52.498;13.446;2024-03-08T12:43:38;13.68;;;7.57;;
37517;SDS011;23366;52.498;13.446;2024-03-08T12:46:04;17.10;;;8.68;;
37517;SDS011;23366;52.498;13.446;2024-03-08T12:48:36;15.32;;;7.97;;
37517;SDS011;23366;52.498;13.446;2024-03-08T12:51:05;18.02;;;9.05;;
37517;SDS011;23366;52.498;13.446;2024-03-08T12:53:32;17.50;;;8.25;;
37517;SDS011;23366;52.498;13.446;2024-03-08T12:55:59;14.45;;;7.88;;
37517;SDS011;23366;52.498;13.446;2024-03-08T12:58:25;18.05;;;9.07;;
37517;SDS011;23366;52.498;13.446;2024-03-08T13:00:51;20.65;;;8.50;;
37517;SDS011;23366;52.498;13.446;2024-03-08T13:03:20;19.27;;;9.27;;
37517;SDS011;23366;52.498;13.446;2024-03-08T13:05:47;26.20;;;9.52;;
37517;SDS011;23366;52.498;13.446;2024-03-08T13:08:14;16.95;;;7.07;;
37517;SDS011;23366;52.498;13.446;2024-03-08T13:10:41;15.95;;;7.63;;
37517;SDS011;23366;52.498;13.446;2024-03-08T13:13:10;18.48;;;8.75;;
37517;SDS011;23366;52.498;13.446;2024-03-08T13:18:08;16.88;;;8.05;;
37517;SDS011;23366;52.498;13.446;2024-03-08T13:20:34;12.20;;;6.93;;
37517;SDS011;23366;52.498;13.446;2024-03-08T13:23:03;20.65;;;8.32;;
37517;SDS011;23366;52.498;13.446;2024-03-08T13:25:30;13.07;;;7.45;;
37517;SDS011;23366;52.498;13.446;2024-03-08T13:27:56;26.70;;;8.38;;
37517;SDS011;23366;52.498;13.446;2024-03-08T13:30:24;16.00;;;7.53;;
37517;SDS011;23366;52.498;13.446;2024-03-08T13:32:54;18.35;;;9.90;;
37517;SDS011;23366;52.498;13.446;2024-03-08T13:35:20;15.00;;;8.00;;
37517;SDS011;23366;52.498;13.446;2024-03-08T13:37:50;15.40;;;7.35;;
37517;SDS011;23366;52.498;13.446;2024-03-08T13:40:16;20.77;;;7.22;;
37517;SDS011;23366;52.498;13.446;2024-03-08T13:42:46;16.23;;;7.25;;
37517;SDS011;23366;52.498;13.446;2024-03-08T13:45:14;14.73;;;8.27;;
37517;SDS011;23366;52.498;13.446;2024-03-08T13:47:42;15.82;;;8.45;;
37517;SDS011;23366;52.498;13.446;2024-03-08T13:50:09;17.48;;;7.10;;
37517;SDS011;23366;52.498;13.446;2024-03-08T13:52:39;13.32;;;7.20;;
37517;SDS011;23366;52.498;13.446;2024-03-08T13:55:05;13.40;;;8.18;;
37517;SDS011;23366;52.498;13.446;2024-03-08T13:57:32;14.50;;;6.97;;
37517;SDS011;23366;52.498;13.446;2024-03-08T13:59:58;13.80;;;6.55;;
37517;SDS011;23366;52.498;13.446;2024-03-08T14:02:24;11.98;;;6.30;;
37517;SDS011;23366;52.498;13.446;2024-03-08T14:04:55;12.32;;;6.97;;
37517;SDS011;23366;52.498;13.446;2024-03-08T14:07:22;12.70;;;6.20;;
37517;SDS011;23366;52.498;13.446;2024-03-08T14:09:48;11.70;;;6.00;;
37517;SDS011;23366;52.498;13.446;2024-03-08T14:12:14;14.15;;;6.32;;
37517;SDS011;23366;52.498;13.446;2024-03-08T14:14:40;13.07;;;6.78;;
37517;SDS011;23366;52.498;13.446;2024-03-08T14:17:09;14.18;;;6.53;;
37517;SDS011;23366;52.498;13.446;2024-03-08T14:19:36;15.43;;;9.07;;
37517;SDS011;23366;52.498;13.446;2024-03-08T14:22:04;15.20;;;6.97;;
37517;SDS011;23366;52.498;13.446;2024-03-08T14:24:30;12.18;;;5.30;;
37517;SDS011;23366;52.498;13.446;2024-03-08T14:26:56;19.55;;;8.15;;
37517;SDS011;23366;52.498;13.446;2024-03-08T14:29:24;13.85;;;7.63;;